sensor_id;sensor_type;location;lat;lon;timestamp;temperature;humidity
8103;DHT22;4094;49.948;11.574;2023-07-13T00:01:33;26.90;44.30
8103;DHT22;4094;49.948;11.574;2023-07-13T00:04:04;26.90;44.40
8103;DHT22;4094;49.948;11.574;2023-07-13T00:06:34;26.90;44.40
8103;DHT22;4094;49.948;11.574;2023-07-13T00:09:03;26.90;44.50
8103;DHT22;4094;49.948;11.574;2023-07-13T00:11:32;26.80;44.40
8103;DHT22;4094;49.948;11.574;2023-07-13T00:14:02;26.90;44.40
8103;DHT22;4094;49.948;11.574;2023-07-13T00:16:33;26.90;44.40
8103;DHT22;4094;49.948;11.574;2023-07-13T00:19:04;26.90;44.50
8103;DHT22;4094;49.948;11.574;2023-07-13T00:21:34;26.80;44.50
8103;DHT22;4094;49.948;11.574;2023-07-13T00:24:05;26.80;44.30
8103;DHT22;4094;49.948;11.574;2023-07-13T00:26:34;26.80;44.50
8103;DHT22;4094;49.948;11.574;2023-07-13T00:29:04;26.80;44.40
8103;DHT22;4094;49.948;11.574;2023-07-13T00:31:36;26.80;44.30
8103;DHT22;4094;49.948;11.574;2023-07-13T00:34:07;26.70;44.20
8103;DHT22;4094;49.948;11.574;2023-07-13T00:36:37;26.70;44.30
8103;DHT22;4094;49.948;11.574;2023-07-13T00:39:06;26.70;44.30
8103;DHT22;4094;49.948;11.574;2023-07-13T00:41:36;26.70;44.40
8103;DHT22;4094;49.948;11.574;2023-07-13T00:44:08;26.70;44.40
8103;DHT22;4094;49.948;11.574;2023-07-13T00:46:38;26.70;44.40
8103;DHT22;4094;49.948;11.574;2023-07-13T00:49:12;26.70;44.50
8103;DHT22;4094;49.948;11.574;2023-07-13T00:51:53;26.70;44.60
8103;DHT22;4094;49.948;11.574;2023-07-13T00:54:28;26.60;44.60
8103;DHT22;4094;49.948;11.574;2023-07-13T00:57:01;26.60;44.70
8103;DHT22;4094;49.948;11.574;2023-07-13T00:59:34;26.60;44.70
8103;DHT22;4094;49.948;11.574;2023-07-13T01:02:05;26.60;44.80
8103;DHT22;4094;49.948;11.574;2023-07-13T01:04:36;26.50;44.80
8103;DHT22;4094;49.948;11.574;2023-07-13T01:07:06;26.50;45.10
8103;DHT22;4094;49.948;11.574;2023-07-13T01:09:36;26.50;45.10
8103;DHT22;4094;49.948;11.574;2023-07-13T01:12:06;26.40;45.40
8103;DHT22;4094;49.948;11.574;2023-07-13T01:14:36;26.40;45.40
8103;DHT22;4094;49.948;11.574;2023-07-13T01:17:05;26.40;45.60
8103;DHT22;4094;49.948;11.574;2023-07-13T01:19:38;26.40;45.40
8103;DHT22;4094;49.948;11.574;2023-07-13T01:22:10;26.30;45.30
8103;DHT22;4094;49.948;11.574;2023-07-13T01:24:41;26.30;45.40
8103;DHT22;4094;49.948;11.574;2023-07-13T01:27:13;26.20;45.30
8103;DHT22;4094;49.948;11.574;2023-07-13T01:29:44;26.20;45.40
8103;DHT22;4094;49.948;11.574;2023-07-13T01:32:17;26.20;45.50
8103;DHT22;4094;49.948;11.574;2023-07-13T01:34:52;26.10;45.60
8103;DHT22;4094;49.948;11.574;2023-07-13T01:37:25;26.10;45.70
8103;DHT22;4094;49.948;11.574;2023-07-13T01:39:55;26.10;45.80
8103;DHT22;4094;49.948;11.574;2023-07-13T01:42:24;26.00;45.80
8103;DHT22;4094;49.948;11.574;2023-07-13T01:44:53;26.00;45.90
8103;DHT22;4094;49.948;11.574;2023-07-13T01:47:22;25.90;45.80
8103;DHT22;4094;49.948;11.574;2023-07-13T01:49:54;25.90;45.80
8103;DHT22;4094;49.948;11.574;2023-07-13T01:52:24;25.90;46.00
8103;DHT22;4094;49.948;11.574;2023-07-13T01:54:53;25.90;46.10
8103;DHT22;4094;49.948;11.574;2023-07-13T01:57:23;25.80;46.00
8103;DHT22;4094;49.948;11.574;2023-07-13T01:59:52;25.80;46.00
8103;DHT22;4094;49.948;11.574;2023-07-13T02:02:21;25.80;46.20
8103;DHT22;4094;49.948;11.574;2023-07-13T02:04:51;25.80;46.20
8103;DHT22;4094;49.948;11.574;2023-07-13T02:07:21;25.70;46.10
8103;DHT22;4094;49.948;11.574;2023-07-13T02:09:53;25.70;46.10
8103;DHT22;4094;49.948;11.574;2023-07-13T02:12:22;25.70;46.10
8103;DHT22;4094;49.948;11.574;2023-07-13T02:14:52;25.60;46.20
8103;DHT22;4094;49.948;11.574;2023-07-13T02:17:21;25.60;46.20
8103;DHT22;4094;49.948;11.574;2023-07-13T02:19:51;25.60;46.60
8103;DHT22;4094;49.948;11.574;2023-07-13T02:22:21;25.60;46.50
8103;DHT22;4094;49.948;11.574;2023-07-13T02:24:50;25.60;46.50
8103;DHT22;4094;49.948;11.574;2023-07-13T02:27:21;25.60;46.60
8103;DHT22;4094;49.948;11.574;2023-07-13T02:29:51;25.60;46.80
8103;DHT22;4094;49.948;11.574;2023-07-13T02:32:21;25.50;46.70
8103;DHT22;4094;49.948;11.574;2023-07-13T02:34:53;25.50;46.80
8103;DHT22;4094;49.948;11.574;2023-07-13T02:37:22;25.50;46.80
8103;DHT22;4094;49.948;11.574;2023-07-13T02:39:51;25.50;46.90
8103;DHT22;4094;49.948;11.574;2023-07-13T02:42:25;25.40;46.80
8103;DHT22;4094;49.948;11.574;2023-07-13T02:44:54;25.40;46.90
8103;DHT22;4094;49.948;11.574;2023-07-13T02:47:24;25.40;47.10
8103;DHT22;4094;49.948;11.574;2023-07-13T02:49:54;25.30;47.20
8103;DHT22;4094;49.948;11.574;2023-07-13T02:52:24;25.30;47.40
8103;DHT22;4094;49.948;11.574;2023-07-13T02:54:53;25.30;47.30
8103;DHT22;4094;49.948;11.574;2023-07-13T02:57:22;25.20;47.40
8103;DHT22;4094;49.948;11.574;2023-07-13T02:59:52;25.20;47.50
8103;DHT22;4094;49.948;11.574;2023-07-13T03:02:22;25.20;47.70
8103;DHT22;4094;49.948;11.574;2023-07-13T03:04:52;25.20;48.20
8103;DHT22;4094;49.948;11.574;2023-07-13T03:07:21;25.10;47.50
8103;DHT22;4094;49.948;11.574;2023-07-13T03:09:54;25.10;47.70
8103;DHT22;4094;49.948;11.574;2023-07-13T03:12:26;25.00;47.70
8103;DHT22;4094;49.948;11.574;2023-07-13T03:14:57;25.00;47.90
8103;DHT22;4094;49.948;11.574;2023-07-13T03:17:27;25.00;48.10
8103;DHT22;4094;49.948;11.574;2023-07-13T03:19:57;24.90;48.10
8103;DHT22;4094;49.948;11.574;2023-07-13T03:22:26;24.90;48.20
8103;DHT22;4094;49.948;11.574;2023-07-13T03:24:56;24.80;48.40
8103;DHT22;4094;49.948;11.574;2023-07-13T03:27:25;24.80;48.30
8103;DHT22;4094;49.948;11.574;2023-07-13T03:29:56;24.70;48.40
8103;DHT22;4094;49.948;11.574;2023-07-13T03:32:26;24.70;48.50
8103;DHT22;4094;49.948;11.574;2023-07-13T03:34:56;24.60;48.50
8103;DHT22;4094;49.948;11.574;2023-07-13T03:37:25;24.60;48.70
8103;DHT22;4094;49.948;11.574;2023-07-13T03:39:55;24.60;48.70
8103;DHT22;4094;49.948;11.574;2023-07-13T03:42:24;24.50;48.70
8103;DHT22;4094;49.948;11.574;2023-07-13T03:44:54;24.50;48.70
8103;DHT22;4094;49.948;11.574;2023-07-13T03:47:25;24.50;48.90
8103;DHT22;4094;49.948;11.574;2023-07-13T03:49:55;24.40;49.00
8103;DHT22;4094;49.948;11.574;2023-07-13T03:52:24;24.40;48.90
8103;DHT22;4094;49.948;11.574;2023-07-13T03:54:54;24.40;49.00
8103;DHT22;4094;49.948;11.574;2023-07-13T03:57:23;24.40;49.00
8103;DHT22;4094;49.948;11.574;2023-07-13T03:59:52;24.40;49.00
8103;DHT22;4094;49.948;11.574;2023-07-13T04:02:21;24.40;49.00
8103;DHT22;4094;49.948;11.574;2023-07-13T04:04:52;24.40;49.10
8103;DHT22;4094;49.948;11.574;2023-07-13T04:07:24;24.30;49.10
8103;DHT22;4094;49.948;11.574;2023-07-13T04:09:54;24.30;49.20
8103;DHT22;4094;49.948;11.574;2023-07-13T04:12:23;24.20;49.30
8103;DHT22;4094;49.948;11.574;2023-07-13T04:14:55;24.20;49.30
8103;DHT22;4094;49.948;11.574;2023-07-13T04:17:24;24.20;49.30
8103;DHT22;4094;49.948;11.574;2023-07-13T04:19:54;24.20;49.40
8103;DHT22;4094;49.948;11.574;2023-07-13T04:22:24;24.10;49.50
8103;DHT22;4094;49.948;11.574;2023-07-13T04:24:53;24.10;49.60
8103;DHT22;4094;49.948;11.574;2023-07-13T04:27:22;24.10;49.70
8103;DHT22;4094;49.948;11.574;2023-07-13T04:29:52;24.10;49.80
8103;DHT22;4094;49.948;11.574;2023-07-13T04:32:22;24.10;49.90
8103;DHT22;4094;49.948;11.574;2023-07-13T04:34:51;24.00;49.90
8103;DHT22;4094;49.948;11.574;2023-07-13T04:37:23;23.90;49.80
8103;DHT22;4094;49.948;11.574;2023-07-13T04:39:52;23.90;50.00
8103;DHT22;4094;49.948;11.574;2023-07-13T04:42:22;23.90;50.20
8103;DHT22;4094;49.948;11.574;2023-07-13T04:44:51;23.80;50.10
8103;DHT22;4094;49.948;11.574;2023-07-13T04:47:21;23.80;50.10
8103;DHT22;4094;49.948;11.574;2023-07-13T04:49:50;23.90;50.10
8103;DHT22;4094;49.948;11.574;2023-07-13T04:52:19;23.80;50.00
8103;DHT22;4094;49.948;11.574;2023-07-13T04:54:50;23.80;50.10
8103;DHT22;4094;49.948;11.574;2023-07-13T04:57:19;23.80;50.10
8103;DHT22;4094;49.948;11.574;2023-07-13T04:59:49;23.90;50.20
8103;DHT22;4094;49.948;11.574;2023-07-13T05:02:23;23.90;50.20
8103;DHT22;4094;49.948;11.574;2023-07-13T05:04:54;23.90;50.20
8103;DHT22;4094;49.948;11.574;2023-07-13T05:07:23;23.90;50.30
8103;DHT22;4094;49.948;11.574;2023-07-13T05:09:53;23.90;50.10
8103;DHT22;4094;49.948;11.574;2023-07-13T05:12:23;23.90;50.00
8103;DHT22;4094;49.948;11.574;2023-07-13T05:14:52;23.90;50.10
8103;DHT22;4094;49.948;11.574;2023-07-13T05:17:22;23.90;50.40
8103;DHT22;4094;49.948;11.574;2023-07-13T05:19:51;24.00;50.40
8103;DHT22;4094;49.948;11.574;2023-07-13T05:22:21;24.00;50.20
8103;DHT22;4094;49.948;11.574;2023-07-13T05:24:51;24.10;50.40
8103;DHT22;4094;49.948;11.574;2023-07-13T05:27:22;24.10;50.20
8103;DHT22;4094;49.948;11.574;2023-07-13T05:29:52;24.20;50.00
8103;DHT22;4094;49.948;11.574;2023-07-13T05:32:21;24.20;50.00
8103;DHT22;4094;49.948;11.574;2023-07-13T05:34:50;24.30;49.90
8103;DHT22;4094;49.948;11.574;2023-07-13T05:37:20;24.40;49.70
8103;DHT22;4094;49.948;11.574;2023-07-13T05:39:50;24.40;49.40
8103;DHT22;4094;49.948;11.574;2023-07-13T05:42:19;24.50;49.20
8103;DHT22;4094;49.948;11.574;2023-07-13T05:44:50;24.50;48.90
8103;DHT22;4094;49.948;11.574;2023-07-13T05:47:19;24.50;48.90
8103;DHT22;4094;49.948;11.574;2023-07-13T05:49:48;24.50;48.90
8103;DHT22;4094;49.948;11.574;2023-07-13T05:52:20;24.50;49.00
8103;DHT22;4094;49.948;11.574;2023-07-13T05:54:49;24.60;48.70
8103;DHT22;4094;49.948;11.574;2023-07-13T05:57:19;24.60;48.50
8103;DHT22;4094;49.948;11.574;2023-07-13T05:59:50;24.60;48.50
8103;DHT22;4094;49.948;11.574;2023-07-13T06:02:19;24.70;48.40
8103;DHT22;4094;49.948;11.574;2023-07-13T06:04:48;24.70;48.20
8103;DHT22;4094;49.948;11.574;2023-07-13T06:07:20;24.80;48.10
8103;DHT22;4094;49.948;11.574;2023-07-13T06:09:49;24.80;48.00
8103;DHT22;4094;49.948;11.574;2023-07-13T06:12:19;24.80;47.80
8103;DHT22;4094;49.948;11.574;2023-07-13T06:14:49;24.90;48.10
8103;DHT22;4094;49.948;11.574;2023-07-13T06:17:18;24.90;48.10
8103;DHT22;4094;49.948;11.574;2023-07-13T06:19:48;24.90;47.80
8103;DHT22;4094;49.948;11.574;2023-07-13T06:22:18;25.00;47.70
8103;DHT22;4094;49.948;11.574;2023-07-13T06:24:48;25.00;47.60
8103;DHT22;4094;49.948;11.574;2023-07-13T06:27:17;25.00;47.40
8103;DHT22;4094;49.948;11.574;2023-07-13T06:29:46;25.00;47.60
8103;DHT22;4094;49.948;11.574;2023-07-13T06:32:23;25.00;47.70
8103;DHT22;4094;49.948;11.574;2023-07-13T06:34:53;25.00;47.80
8103;DHT22;4094;49.948;11.574;2023-07-13T06:37:22;25.00;47.70
8103;DHT22;4094;49.948;11.574;2023-07-13T06:39:52;25.00;47.50
8103;DHT22;4094;49.948;11.574;2023-07-13T06:42:21;25.10;47.50
8103;DHT22;4094;49.948;11.574;2023-07-13T06:44:51;25.00;47.40
8103;DHT22;4094;49.948;11.574;2023-07-13T06:47:21;25.00;47.60
8103;DHT22;4094;49.948;11.574;2023-07-13T06:49:51;25.00;47.70
8103;DHT22;4094;49.948;11.574;2023-07-13T06:52:20;25.00;47.50
8103;DHT22;4094;49.948;11.574;2023-07-13T06:54:50;25.00;47.50
8103;DHT22;4094;49.948;11.574;2023-07-13T06:57:19;25.00;47.60
8103;DHT22;4094;49.948;11.574;2023-07-13T06:59:48;25.00;47.60
8103;DHT22;4094;49.948;11.574;2023-07-13T07:02:18;25.00;47.60
8103;DHT22;4094;49.948;11.574;2023-07-13T07:04:48;25.10;47.70
8103;DHT22;4094;49.948;11.574;2023-07-13T07:07:17;25.20;48.00
8103;DHT22;4094;49.948;11.574;2023-07-13T07:09:47;25.30;47.80
8103;DHT22;4094;49.948;11.574;2023-07-13T07:12:16;25.30;47.40
8103;DHT22;4094;49.948;11.574;2023-07-13T07:14:46;25.40;46.90
8103;DHT22;4094;49.948;11.574;2023-07-13T07:17:15;25.40;46.50
8103;DHT22;4094;49.948;11.574;2023-07-13T07:19:45;25.50;46.00
8103;DHT22;4094;49.948;11.574;2023-07-13T07:22:16;25.50;45.70
8103;DHT22;4094;49.948;11.574;2023-07-13T07:24:46;25.50;45.20
8103;DHT22;4094;49.948;11.574;2023-07-13T07:27:15;25.50;45.30
8103;DHT22;4094;49.948;11.574;2023-07-13T07:29:48;25.50;45.40
8103;DHT22;4094;49.948;11.574;2023-07-13T07:32:37;25.50;45.30
8103;DHT22;4094;49.948;11.574;2023-07-13T07:35:10;25.50;44.70
8103;DHT22;4094;49.948;11.574;2023-07-13T07:37:41;25.50;44.20
8103;DHT22;4094;49.948;11.574;2023-07-13T07:40:13;25.50;45.10
8103;DHT22;4094;49.948;11.574;2023-07-13T07:42:45;25.50;44.30
8103;DHT22;4094;49.948;11.574;2023-07-13T07:45:15;25.50;44.40
8103;DHT22;4094;49.948;11.574;2023-07-13T07:47:44;25.60;44.50
8103;DHT22;4094;49.948;11.574;2023-07-13T07:50:14;25.60;43.70
8103;DHT22;4094;49.948;11.574;2023-07-13T07:52:45;25.70;44.00
8103;DHT22;4094;49.948;11.574;2023-07-13T07:55:14;25.80;43.50
8103;DHT22;4094;49.948;11.574;2023-07-13T07:57:48;25.90;43.40
8103;DHT22;4094;49.948;11.574;2023-07-13T08:00:21;26.00;42.90
8103;DHT22;4094;49.948;11.574;2023-07-13T08:02:55;26.00;43.10
8103;DHT22;4094;49.948;11.574;2023-07-13T08:05:45;26.10;42.90
8103;DHT22;4094;49.948;11.574;2023-07-13T08:08:36;26.20;42.60
8103;DHT22;4094;49.948;11.574;2023-07-13T08:11:06;26.20;42.50
8103;DHT22;4094;49.948;11.574;2023-07-13T08:13:39;26.20;42.30
8103;DHT22;4094;49.948;11.574;2023-07-13T08:16:08;26.30;42.30
8103;DHT22;4094;49.948;11.574;2023-07-13T08:18:37;26.30;42.00
8103;DHT22;4094;49.948;11.574;2023-07-13T08:21:08;26.30;42.20
8103;DHT22;4094;49.948;11.574;2023-07-13T08:23:39;26.40;42.30
8103;DHT22;4094;49.948;11.574;2023-07-13T08:26:09;26.40;42.40
8103;DHT22;4094;49.948;11.574;2023-07-13T08:28:39;26.40;42.40
8103;DHT22;4094;49.948;11.574;2023-07-13T08:31:09;26.50;42.00
8103;DHT22;4094;49.948;11.574;2023-07-13T08:33:39;26.50;41.60
8103;DHT22;4094;49.948;11.574;2023-07-13T08:36:09;26.50;41.90
8103;DHT22;4094;49.948;11.574;2023-07-13T08:38:40;26.60;41.60
8103;DHT22;4094;49.948;11.574;2023-07-13T08:41:12;26.60;41.20
8103;DHT22;4094;49.948;11.574;2023-07-13T08:43:45;26.60;41.50
8103;DHT22;4094;49.948;11.574;2023-07-13T08:46:20;26.60;41.40
8103;DHT22;4094;49.948;11.574;2023-07-13T08:48:58;26.60;40.80
8103;DHT22;4094;49.948;11.574;2023-07-13T08:51:35;26.60;40.90
8103;DHT22;4094;49.948;11.574;2023-07-13T08:54:14;26.60;41.30
8103;DHT22;4094;49.948;11.574;2023-07-13T08:56:46;26.60;41.70
8103;DHT22;4094;49.948;11.574;2023-07-13T08:59:17;26.70;41.40
8103;DHT22;4094;49.948;11.574;2023-07-13T09:02:05;26.70;41.30
8103;DHT22;4094;49.948;11.574;2023-07-13T09:04:43;26.80;40.80
8103;DHT22;4094;49.948;11.574;2023-07-13T09:07:21;26.80;40.20
8103;DHT22;4094;49.948;11.574;2023-07-13T09:10:04;26.80;40.60
8103;DHT22;4094;49.948;11.574;2023-07-13T09:12:40;26.90;40.50
8103;DHT22;4094;49.948;11.574;2023-07-13T09:15:24;26.90;40.30
8103;DHT22;4094;49.948;11.574;2023-07-13T09:17:56;27.00;40.00
8103;DHT22;4094;49.948;11.574;2023-07-13T09:20:31;27.00;40.20
8103;DHT22;4094;49.948;11.574;2023-07-13T09:23:04;27.10;39.00
8103;DHT22;4094;49.948;11.574;2023-07-13T09:25:41;27.20;38.90
8103;DHT22;4094;49.948;11.574;2023-07-13T09:28:18;27.20;39.20
8103;DHT22;4094;49.948;11.574;2023-07-13T09:30:54;27.30;39.70
8103;DHT22;4094;49.948;11.574;2023-07-13T09:33:25;27.30;39.30
8103;DHT22;4094;49.948;11.574;2023-07-13T09:35:57;27.40;38.60
8103;DHT22;4094;49.948;11.574;2023-07-13T09:38:29;27.40;37.60
8103;DHT22;4094;49.948;11.574;2023-07-13T09:41:11;27.40;37.10
8103;DHT22;4094;49.948;11.574;2023-07-13T09:44:09;27.50;37.60
8103;DHT22;4094;49.948;11.574;2023-07-13T09:46:43;27.50;37.10
8103;DHT22;4094;49.948;11.574;2023-07-13T09:49:14;27.60;37.10
8103;DHT22;4094;49.948;11.574;2023-07-13T09:51:44;27.70;36.50
8103;DHT22;4094;49.948;11.574;2023-07-13T09:54:21;27.70;35.90
8103;DHT22;4094;49.948;11.574;2023-07-13T09:56:58;27.70;36.30
8103;DHT22;4094;49.948;11.574;2023-07-13T09:59:30;27.80;36.20
8103;DHT22;4094;49.948;11.574;2023-07-13T10:02:00;27.80;35.70
8103;DHT22;4094;49.948;11.574;2023-07-13T10:04:32;27.80;35.20
8103;DHT22;4094;49.948;11.574;2023-07-13T10:07:06;27.80;35.30
8103;DHT22;4094;49.948;11.574;2023-07-13T10:09:57;27.80;35.40
8103;DHT22;4094;49.948;11.574;2023-07-13T10:12:29;27.80;35.70
8103;DHT22;4094;49.948;11.574;2023-07-13T10:15:00;27.80;34.60
8103;DHT22;4094;49.948;11.574;2023-07-13T10:17:51;27.70;34.20
8103;DHT22;4094;49.948;11.574;2023-07-13T10:20:21;27.70;34.70
8103;DHT22;4094;49.948;11.574;2023-07-13T10:22:54;27.70;35.00
8103;DHT22;4094;49.948;11.574;2023-07-13T10:25:26;27.80;35.10
8103;DHT22;4094;49.948;11.574;2023-07-13T10:28:02;27.80;34.40
8103;DHT22;4094;49.948;11.574;2023-07-13T10:30:35;27.80;34.40
8103;DHT22;4094;49.948;11.574;2023-07-13T10:33:11;27.90;34.30
8103;DHT22;4094;49.948;11.574;2023-07-13T10:35:43;27.90;33.80
8103;DHT22;4094;49.948;11.574;2023-07-13T10:38:17;27.90;33.40
8103;DHT22;4094;49.948;11.574;2023-07-13T10:40:52;27.90;33.50
8103;DHT22;4094;49.948;11.574;2023-07-13T10:43:27;28.00;34.20
8103;DHT22;4094;49.948;11.574;2023-07-13T10:45:58;28.00;34.00
8103;DHT22;4094;49.948;11.574;2023-07-13T10:48:28;28.10;34.50
8103;DHT22;4094;49.948;11.574;2023-07-13T10:51:00;28.20;34.40
8103;DHT22;4094;49.948;11.574;2023-07-13T10:53:31;28.20;33.70
8103;DHT22;4094;49.948;11.574;2023-07-13T10:56:02;28.30;33.60
8103;DHT22;4094;49.948;11.574;2023-07-13T10:58:36;28.30;33.60
8103;DHT22;4094;49.948;11.574;2023-07-13T11:01:11;28.40;33.40
8103;DHT22;4094;49.948;11.574;2023-07-13T11:03:50;28.40;33.10
8103;DHT22;4094;49.948;11.574;2023-07-13T11:06:33;28.50;33.60
8103;DHT22;4094;49.948;11.574;2023-07-13T11:09:19;28.50;33.70
8103;DHT22;4094;49.948;11.574;2023-07-13T11:11:48;28.50;33.20
8103;DHT22;4094;49.948;11.574;2023-07-13T11:14:34;28.50;33.60
8103;DHT22;4094;49.948;11.574;2023-07-13T11:17:34;28.60;32.90
8103;DHT22;4094;49.948;11.574;2023-07-13T11:20:22;28.70;32.90
8103;DHT22;4094;49.948;11.574;2023-07-13T11:23:06;28.70;32.70
8103;DHT22;4094;49.948;11.574;2023-07-13T11:25:37;28.80;32.30
8103;DHT22;4094;49.948;11.574;2023-07-13T11:28:21;28.80;32.10
8103;DHT22;4094;49.948;11.574;2023-07-13T11:31:14;28.90;32.10
8103;DHT22;4094;49.948;11.574;2023-07-13T11:33:56;28.90;31.90
8103;DHT22;4094;49.948;11.574;2023-07-13T11:36:35;28.90;32.10
8103;DHT22;4094;49.948;11.574;2023-07-13T11:39:18;29.00;32.30
8103;DHT22;4094;49.948;11.574;2023-07-13T11:41:51;29.00;32.30
8103;DHT22;4094;49.948;11.574;2023-07-13T11:44:22;29.10;33.00
8103;DHT22;4094;49.948;11.574;2023-07-13T11:46:55;29.20;32.70
8103;DHT22;4094;49.948;11.574;2023-07-13T11:49:26;29.20;32.10
8103;DHT22;4094;49.948;11.574;2023-07-13T11:51:57;29.30;31.90
8103;DHT22;4094;49.948;11.574;2023-07-13T11:54:28;29.30;32.10
8103;DHT22;4094;49.948;11.574;2023-07-13T11:57:01;29.40;31.50
8103;DHT22;4094;49.948;11.574;2023-07-13T11:59:39;29.50;31.50
8103;DHT22;4094;49.948;11.574;2023-07-13T12:02:17;29.50;31.20
8103;DHT22;4094;49.948;11.574;2023-07-13T12:04:49;29.50;31.40
8103;DHT22;4094;49.948;11.574;2023-07-13T12:07:24;29.40;31.30
8103;DHT22;4094;49.948;11.574;2023-07-13T12:09:54;29.40;31.50
8103;DHT22;4094;49.948;11.574;2023-07-13T12:12:29;29.40;31.10
8103;DHT22;4094;49.948;11.574;2023-07-13T12:15:00;29.30;31.20
8103;DHT22;4094;49.948;11.574;2023-07-13T12:17:31;29.30;31.20
8103;DHT22;4094;49.948;11.574;2023-07-13T12:20:16;29.30;31.70
8103;DHT22;4094;49.948;11.574;2023-07-13T12:22:47;29.30;31.90
8103;DHT22;4094;49.948;11.574;2023-07-13T12:25:17;29.30;31.70
8103;DHT22;4094;49.948;11.574;2023-07-13T12:27:48;29.40;31.70
8103;DHT22;4094;49.948;11.574;2023-07-13T12:30:27;29.40;31.70
8103;DHT22;4094;49.948;11.574;2023-07-13T12:33:07;29.60;31.50
8103;DHT22;4094;49.948;11.574;2023-07-13T12:35:42;29.70;31.00
8103;DHT22;4094;49.948;11.574;2023-07-13T12:38:13;29.70;31.50
8103;DHT22;4094;49.948;11.574;2023-07-13T12:40:43;29.80;31.60
8103;DHT22;4094;49.948;11.574;2023-07-13T12:43:13;29.90;31.40
8103;DHT22;4094;49.948;11.574;2023-07-13T12:45:56;29.90;31.40
8103;DHT22;4094;49.948;11.574;2023-07-13T12:48:27;30.10;31.30
8103;DHT22;4094;49.948;11.574;2023-07-13T12:51:14;30.10;30.60
8103;DHT22;4094;49.948;11.574;2023-07-13T12:53:49;30.20;30.70
8103;DHT22;4094;49.948;11.574;2023-07-13T12:56:22;30.20;30.30
8103;DHT22;4094;49.948;11.574;2023-07-13T12:58:58;30.20;30.50
8103;DHT22;4094;49.948;11.574;2023-07-13T13:01:30;30.30;30.10
8103;DHT22;4094;49.948;11.574;2023-07-13T13:04:03;30.20;30.40
8103;DHT22;4094;49.948;11.574;2023-07-13T13:06:35;30.20;30.10
8103;DHT22;4094;49.948;11.574;2023-07-13T13:09:11;30.20;30.70
8103;DHT22;4094;49.948;11.574;2023-07-13T13:11:41;30.10;30.30
8103;DHT22;4094;49.948;11.574;2023-07-13T13:14:10;30.10;30.40
8103;DHT22;4094;49.948;11.574;2023-07-13T13:16:46;30.10;30.60
8103;DHT22;4094;49.948;11.574;2023-07-13T13:19:19;30.10;30.80
8103;DHT22;4094;49.948;11.574;2023-07-13T13:21:50;30.10;30.40
8103;DHT22;4094;49.948;11.574;2023-07-13T13:24:22;30.10;30.70
8103;DHT22;4094;49.948;11.574;2023-07-13T13:26:53;30.10;30.40
8103;DHT22;4094;49.948;11.574;2023-07-13T13:29:25;30.00;30.40
8103;DHT22;4094;49.948;11.574;2023-07-13T13:31:55;30.00;30.90
8103;DHT22;4094;49.948;11.574;2023-07-13T13:34:26;30.00;30.50
8103;DHT22;4094;49.948;11.574;2023-07-13T13:36:55;30.00;30.50
8103;DHT22;4094;49.948;11.574;2023-07-13T13:39:31;30.00;31.10
8103;DHT22;4094;49.948;11.574;2023-07-13T13:42:01;30.10;30.80
8103;DHT22;4094;49.948;11.574;2023-07-13T13:44:30;30.10;30.70
8103;DHT22;4094;49.948;11.574;2023-07-13T13:47:00;30.10;30.40
8103;DHT22;4094;49.948;11.574;2023-07-13T13:49:31;30.10;30.30
8103;DHT22;4094;49.948;11.574;2023-07-13T13:52:01;30.10;30.40
8103;DHT22;4094;49.948;11.574;2023-07-13T13:54:30;30.10;30.60
8103;DHT22;4094;49.948;11.574;2023-07-13T13:56:59;30.10;30.20
8103;DHT22;4094;49.948;11.574;2023-07-13T13:59:29;30.20;30.40
8103;DHT22;4094;49.948;11.574;2023-07-13T14:02:00;30.10;30.50
8103;DHT22;4094;49.948;11.574;2023-07-13T14:04:31;30.20;30.50
8103;DHT22;4094;49.948;11.574;2023-07-13T14:07:00;30.20;30.10
8103;DHT22;4094;49.948;11.574;2023-07-13T14:09:30;30.20;30.60
8103;DHT22;4094;49.948;11.574;2023-07-13T14:12:02;30.30;30.60
8103;DHT22;4094;49.948;11.574;2023-07-13T14:14:32;30.40;30.50
8103;DHT22;4094;49.948;11.574;2023-07-13T14:17:02;30.50;30.60
8103;DHT22;4094;49.948;11.574;2023-07-13T14:19:33;30.50;30.20
8103;DHT22;4094;49.948;11.574;2023-07-13T14:22:03;30.50;30.70
8103;DHT22;4094;49.948;11.574;2023-07-13T14:24:36;30.50;30.50
8103;DHT22;4094;49.948;11.574;2023-07-13T14:27:07;30.50;30.20
8103;DHT22;4094;49.948;11.574;2023-07-13T14:29:38;30.50;30.60
8103;DHT22;4094;49.948;11.574;2023-07-13T14:32:10;30.50;30.00
8103;DHT22;4094;49.948;11.574;2023-07-13T14:34:41;30.50;30.00
8103;DHT22;4094;49.948;11.574;2023-07-13T14:37:12;30.40;29.80
8103;DHT22;4094;49.948;11.574;2023-07-13T14:39:44;30.40;30.00
8103;DHT22;4094;49.948;11.574;2023-07-13T14:42:14;30.30;30.20
8103;DHT22;4094;49.948;11.574;2023-07-13T14:44:44;30.20;30.10
8103;DHT22;4094;49.948;11.574;2023-07-13T14:47:13;30.10;30.10
8103;DHT22;4094;49.948;11.574;2023-07-13T14:49:44;30.10;30.50
8103;DHT22;4094;49.948;11.574;2023-07-13T14:52:18;30.00;30.60
8103;DHT22;4094;49.948;11.574;2023-07-13T14:54:52;30.00;30.50
8103;DHT22;4094;49.948;11.574;2023-07-13T14:57:22;29.90;30.50
8103;DHT22;4094;49.948;11.574;2023-07-13T14:59:51;29.80;30.60
8103;DHT22;4094;49.948;11.574;2023-07-13T15:02:27;29.80;30.60
8103;DHT22;4094;49.948;11.574;2023-07-13T15:04:59;29.70;31.00
8103;DHT22;4094;49.948;11.574;2023-07-13T15:07:29;29.60;30.80
8103;DHT22;4094;49.948;11.574;2023-07-13T15:09:58;29.60;31.30
8103;DHT22;4094;49.948;11.574;2023-07-13T15:12:28;29.50;31.10
8103;DHT22;4094;49.948;11.574;2023-07-13T15:14:58;29.40;31.30
8103;DHT22;4094;49.948;11.574;2023-07-13T15:17:32;29.40;31.10
8103;DHT22;4094;49.948;11.574;2023-07-13T15:20:17;29.30;31.20
8103;DHT22;4094;49.948;11.574;2023-07-13T15:22:48;29.20;31.60
8103;DHT22;4094;49.948;11.574;2023-07-13T15:25:18;29.20;31.90
8103;DHT22;4094;49.948;11.574;2023-07-13T15:27:48;29.10;31.70
8103;DHT22;4094;49.948;11.574;2023-07-13T15:30:18;29.00;31.80
8103;DHT22;4094;49.948;11.574;2023-07-13T15:32:48;29.00;31.80
8103;DHT22;4094;49.948;11.574;2023-07-13T15:35:22;29.10;31.90
8103;DHT22;4094;49.948;11.574;2023-07-13T15:37:51;29.10;31.60
8103;DHT22;4094;49.948;11.574;2023-07-13T15:40:22;29.10;31.60
8103;DHT22;4094;49.948;11.574;2023-07-13T15:42:52;29.10;31.60
8103;DHT22;4094;49.948;11.574;2023-07-13T15:45:24;29.20;31.30
8103;DHT22;4094;49.948;11.574;2023-07-13T15:47:53;29.20;31.50
8103;DHT22;4094;49.948;11.574;2023-07-13T15:50:25;29.30;31.80
8103;DHT22;4094;49.948;11.574;2023-07-13T15:52:59;29.30;31.80
8103;DHT22;4094;49.948;11.574;2023-07-13T15:55:30;29.40;31.50
8103;DHT22;4094;49.948;11.574;2023-07-13T15:58:00;29.50;31.70
8103;DHT22;4094;49.948;11.574;2023-07-13T16:00:30;29.40;31.90
8103;DHT22;4094;49.948;11.574;2023-07-13T16:02:59;29.50;31.90
8103;DHT22;4094;49.948;11.574;2023-07-13T16:05:30;29.40;31.50
8103;DHT22;4094;49.948;11.574;2023-07-13T16:07:59;29.40;31.80
8103;DHT22;4094;49.948;11.574;2023-07-13T16:10:34;29.40;31.60
8103;DHT22;4094;49.948;11.574;2023-07-13T16:13:05;29.40;31.80
8103;DHT22;4094;49.948;11.574;2023-07-13T16:15:39;29.50;31.80